Flugplatz Segelflugplatz Stillberghof (UL)

Hier findest Du alle Informationen zum Flugplatz Segelflugplatz Stillberghof (UL).

Informationen für Piloten zum Flugplatz Segelflugplatz Stillberghof

Hier findest Du alle relevanten Informationen, die Du als Pilot benötigst, um Segelflugplatz Stillberghof anzufliegen.

Flugplatz: Segelflugplatz Stillberghof ICAO-Code: UL Flugplatz
Frequenz Turm: 127,465 Mhz GAFOR Gebiet: 73
Frequenz Ground: 127.465 Mhz Mogas: ja
Platzrunde: N 2400 ft Landegebühr: -
Platzhöhe: - Sunrise: 04:21 Uhr UTC
Pisten: 09/27 - 650 m x 30 m, GRAS Sunset: 18:11 Uhr UTC

Mitglieder, die in Segelflugplatz Stillberghof fliegen

Flugwetter am Flugplatz Segelflugplatz Stillberghof

Die METAR Information stammen aus EDMA (34.70 km entfernt).

METAR Code:
2024/03/26 23:20
EDMA 262320Z AUTO VRB01KT 9999 // FEW250/// 03/01 Q0990

Flugschulen am Flugplatz Segelflugplatz Stillberghof

Am Flugplatz Segelflugplatz Stillberghof gibt es leider keine Flugschule.

Benachbarte Flugplätze und Flugschulen

Es gibt 21 weitere Flugplätze in einem Umkreis von 50 km um den Flugplatz Segelflugplatz Stillberghof.

Jetzt anmelden

Passwort vergessen

Umfrage Archiv

Wie häufig haltet Ihr die Halbkreisflugregel ein?

Eher häufig!
34.5 %
Immer!
32.4 %
Hin und wieder!
16.4 %
Nie!
9.2 %
Eher selten!
7.6 %
Stimmen: 238 | Diskussion
Anzeige: Roland Aircraft
Statistik Alle Mitglieder

Aktuell sind 26 Besucher online, davon 1 Mitglied und 25 Gäste.


Mitglieder online:
Hisi 

Anzeige: EasyVFR